sensor_id;sensor_type;location;lat;lon;timestamp;P1;durP1;ratioP1;P2;durP2;ratioP2
26435;SDS011;15351;52.408;16.826;2023-03-16T00:01:13;17.30;;;9.20;;
26435;SDS011;15351;52.408;16.826;2023-03-16T00:03:40;16.70;;;9.20;;
26435;SDS011;15351;52.408;16.826;2023-03-16T00:06:06;15.70;;;9.00;;
26435;SDS011;15351;52.408;16.826;2023-03-16T00:08:34;15.50;;;8.50;;
26435;SDS011;15351;52.408;16.826;2023-03-16T00:11:02;15.20;;;7.60;;
26435;SDS011;15351;52.408;16.826;2023-03-16T00:13:28;17.20;;;8.20;;
26435;SDS011;15351;52.408;16.826;2023-03-16T00:16:01;14.30;;;8.30;;
26435;SDS011;15351;52.408;16.826;2023-03-16T00:18:36;15.10;;;8.40;;
26435;SDS011;15351;52.408;16.826;2023-03-16T00:21:06;18.20;;;8.60;;
26435;SDS011;15351;52.408;16.826;2023-03-16T00:23:40;16.60;;;8.20;;
26435;SDS011;15351;52.408;16.826;2023-03-16T00:26:08;16.80;;;8.40;;
26435;SDS011;15351;52.408;16.826;2023-03-16T00:28:38;15.70;;;8.00;;
26435;SDS011;15351;52.408;16.826;2023-03-16T00:31:06;14.90;;;7.80;;
26435;SDS011;15351;52.408;16.826;2023-03-16T00:33:41;13.30;;;7.50;;
26435;SDS011;15351;52.408;16.826;2023-03-16T00:36:12;13.30;;;6.30;;
26435;SDS011;15351;52.408;16.826;2023-03-16T00:38:39;12.30;;;6.20;;
26435;SDS011;15351;52.408;16.826;2023-03-16T00:41:24;10.90;;;5.70;;
26435;SDS011;15351;52.408;16.826;2023-03-16T00:44:12;10.10;;;5.80;;
26435;SDS011;15351;52.408;16.826;2023-03-16T00:46:46;13.40;;;6.70;;
26435;SDS011;15351;52.408;16.826;2023-03-16T00:49:18;11.90;;;5.80;;
26435;SDS011;15351;52.408;16.826;2023-03-16T00:51:47;10.60;;;5.50;;
26435;SDS011;15351;52.408;16.826;2023-03-16T00:54:16;11.10;;;6.00;;
26435;SDS011;15351;52.408;16.826;2023-03-16T00:57:06;10.80;;;5.80;;
26435;SDS011;15351;52.408;16.826;2023-03-16T00:59:35;11.90;;;5.90;;
26435;SDS011;15351;52.408;16.826;2023-03-16T01:02:06;11.00;;;5.40;;
26435;SDS011;15351;52.408;16.826;2023-03-16T01:04:35;11.50;;;5.40;;
26435;SDS011;15351;52.408;16.826;2023-03-16T01:07:12;11.00;;;5.90;;
26435;SDS011;15351;52.408;16.826;2023-03-16T01:09:53;12.10;;;6.10;;
26435;SDS011;15351;52.408;16.826;2023-03-16T01:12:42;10.20;;;5.60;;
26435;SDS011;15351;52.408;16.826;2023-03-16T01:15:14;11.40;;;5.30;;
26435;SDS011;15351;52.408;16.826;2023-03-16T01:17:43;11.40;;;5.10;;
26435;SDS011;15351;52.408;16.826;2023-03-16T01:20:11;10.60;;;5.20;;
26435;SDS011;15351;52.408;16.826;2023-03-16T01:22:40;9.40;;;5.10;;
26435;SDS011;15351;52.408;16.826;2023-03-16T01:25:12;10.60;;;5.80;;
26435;SDS011;15351;52.408;16.826;2023-03-16T01:27:43;10.90;;;5.50;;
26435;SDS011;15351;52.408;16.826;2023-03-16T01:30:13;11.80;;;5.70;;
26435;SDS011;15351;52.408;16.826;2023-03-16T01:32:39;10.30;;;5.10;;
26435;SDS011;15351;52.408;16.826;2023-03-16T01:35:12;12.70;;;6.00;;
26435;SDS011;15351;52.408;16.826;2023-03-16T01:37:39;12.10;;;6.40;;
26435;SDS011;15351;52.408;16.826;2023-03-16T01:40:17;11.80;;;6.30;;
26435;SDS011;15351;52.408;16.826;2023-03-16T01:42:45;12.50;;;6.30;;
26435;SDS011;15351;52.408;16.826;2023-03-16T01:51:39;11.00;;;5.50;;
26435;SDS011;15351;52.408;16.826;2023-03-16T01:54:32;13.80;;;5.70;;
26435;SDS011;15351;52.408;16.826;2023-03-16T02:00:01;12.00;;;5.30;;
26435;SDS011;15351;52.408;16.826;2023-03-16T02:02:58;11.80;;;5.90;;
26435;SDS011;15351;52.408;16.826;2023-03-16T02:05:48;11.50;;;6.10;;
26435;SDS011;15351;52.408;16.826;2023-03-16T02:08:30;10.60;;;5.60;;
26435;SDS011;15351;52.408;16.826;2023-03-16T02:10:59;13.20;;;5.50;;
26435;SDS011;15351;52.408;16.826;2023-03-16T02:14:05;9.70;;;5.40;;
26435;SDS011;15351;52.408;16.826;2023-03-16T02:16:48;12.70;;;6.00;;
26435;SDS011;15351;52.408;16.826;2023-03-16T02:19:32;10.70;;;6.70;;
26435;SDS011;15351;52.408;16.826;2023-03-16T02:22:27;15.50;;;6.60;;
26435;SDS011;15351;52.408;16.826;2023-03-16T02:24:55;13.90;;;6.30;;
26435;SDS011;15351;52.408;16.826;2023-03-16T02:27:56;14.10;;;7.30;;
26435;SDS011;15351;52.408;16.826;2023-03-16T02:30:34;12.90;;;6.80;;
26435;SDS011;15351;52.408;16.826;2023-03-16T02:33:02;13.90;;;6.10;;
26435;SDS011;15351;52.408;16.826;2023-03-16T02:35:30;12.00;;;5.90;;
26435;SDS011;15351;52.408;16.826;2023-03-16T02:38:01;11.50;;;5.40;;
26435;SDS011;15351;52.408;16.826;2023-03-16T02:40:32;9.70;;;5.40;;
26435;SDS011;15351;52.408;16.826;2023-03-16T02:43:15;10.60;;;5.90;;
26435;SDS011;15351;52.408;16.826;2023-03-16T02:46:03;9.80;;;5.40;;
26435;SDS011;15351;52.408;16.826;2023-03-16T02:48:37;11.60;;;5.40;;
26435;SDS011;15351;52.408;16.826;2023-03-16T02:51:10;10.50;;;5.30;;
26435;SDS011;15351;52.408;16.826;2023-03-16T02:53:40;11.00;;;5.10;;
26435;SDS011;15351;52.408;16.826;2023-03-16T02:56:08;10.20;;;5.50;;
26435;SDS011;15351;52.408;16.826;2023-03-16T02:58:39;11.60;;;5.60;;
26435;SDS011;15351;52.408;16.826;2023-03-16T03:01:29;13.40;;;5.30;;
26435;SDS011;15351;52.408;16.826;2023-03-16T03:03:58;10.80;;;4.90;;
26435;SDS011;15351;52.408;16.826;2023-03-16T03:06:36;10.40;;;5.20;;
26435;SDS011;15351;52.408;16.826;2023-03-16T03:09:05;10.60;;;5.20;;
26435;SDS011;15351;52.408;16.826;2023-03-16T03:11:38;10.40;;;5.40;;
26435;SDS011;15351;52.408;16.826;2023-03-16T03:14:07;11.70;;;5.20;;
26435;SDS011;15351;52.408;16.826;2023-03-16T03:16:38;12.00;;;5.50;;
26435;SDS011;15351;52.408;16.826;2023-03-16T03:19:06;11.30;;;5.60;;
26435;SDS011;15351;52.408;16.826;2023-03-16T03:21:35;13.00;;;6.00;;
26435;SDS011;15351;52.408;16.826;2023-03-16T03:24:11;11.80;;;6.10;;
26435;SDS011;15351;52.408;16.826;2023-03-16T03:26:57;11.90;;;5.60;;
26435;SDS011;15351;52.408;16.826;2023-03-16T03:29:32;12.10;;;5.50;;
26435;SDS011;15351;52.408;16.826;2023-03-16T03:32:02;10.70;;;5.90;;
26435;SDS011;15351;52.408;16.826;2023-03-16T03:34:38;14.80;;;7.70;;
26435;SDS011;15351;52.408;16.826;2023-03-16T03:37:10;16.60;;;9.20;;
26435;SDS011;15351;52.408;16.826;2023-03-16T03:39:37;20.50;;;9.40;;
26435;SDS011;15351;52.408;16.826;2023-03-16T03:42:06;18.30;;;8.90;;
26435;SDS011;15351;52.408;16.826;2023-03-16T03:44:35;16.00;;;8.70;;
26435;SDS011;15351;52.408;16.826;2023-03-16T03:47:14;17.90;;;8.70;;
26435;SDS011;15351;52.408;16.826;2023-03-16T03:49:44;15.80;;;8.40;;
26435;SDS011;15351;52.408;16.826;2023-03-16T03:52:13;15.40;;;7.60;;
26435;SDS011;15351;52.408;16.826;2023-03-16T03:54:43;14.70;;;7.40;;
26435;SDS011;15351;52.408;16.826;2023-03-16T03:57:14;14.20;;;7.20;;
26435;SDS011;15351;52.408;16.826;2023-03-16T03:59:46;16.50;;;8.60;;
26435;SDS011;15351;52.408;16.826;2023-03-16T04:02:45;14.10;;;7.20;;
26435;SDS011;15351;52.408;16.826;2023-03-16T04:05:22;14.70;;;7.30;;
26435;SDS011;15351;52.408;16.826;2023-03-16T04:08:33;14.00;;;6.90;;
26435;SDS011;15351;52.408;16.826;2023-03-16T04:11:17;10.90;;;6.50;;
26435;SDS011;15351;52.408;16.826;2023-03-16T04:14:03;13.20;;;6.30;;
26435;SDS011;15351;52.408;16.826;2023-03-16T04:16:30;11.60;;;6.10;;
26435;SDS011;15351;52.408;16.826;2023-03-16T04:18:57;12.60;;;5.70;;
26435;SDS011;15351;52.408;16.826;2023-03-16T04:21:24;9.70;;;5.10;;
26435;SDS011;15351;52.408;16.826;2023-03-16T04:24:12;11.60;;;5.00;;
26435;SDS011;15351;52.408;16.826;2023-03-16T04:26:41;10.50;;;5.20;;
26435;SDS011;15351;52.408;16.826;2023-03-16T04:29:18;12.20;;;6.20;;
26435;SDS011;15351;52.408;16.826;2023-03-16T04:31:51;13.70;;;6.20;;
26435;SDS011;15351;52.408;16.826;2023-03-16T04:34:28;21.60;;;8.40;;
26435;SDS011;15351;52.408;16.826;2023-03-16T04:36:59;34.00;;;13.00;;
26435;SDS011;15351;52.408;16.826;2023-03-16T04:39:27;41.30;;;17.70;;
26435;SDS011;15351;52.408;16.826;2023-03-16T04:42:06;37.60;;;16.10;;
26435;SDS011;15351;52.408;16.826;2023-03-16T04:44:53;27.80;;;11.10;;
26435;SDS011;15351;52.408;16.826;2023-03-16T04:47:44;21.50;;;9.40;;
26435;SDS011;15351;52.408;16.826;2023-03-16T04:50:15;19.30;;;9.60;;
26435;SDS011;15351;52.408;16.826;2023-03-16T04:52:51;19.20;;;10.50;;
26435;SDS011;15351;52.408;16.826;2023-03-16T04:55:39;16.60;;;9.70;;
26435;SDS011;15351;52.408;16.826;2023-03-16T04:58:16;16.10;;;8.10;;
26435;SDS011;15351;52.408;16.826;2023-03-16T05:00:43;13.40;;;7.10;;
26435;SDS011;15351;52.408;16.826;2023-03-16T05:03:20;13.90;;;6.70;;
26435;SDS011;15351;52.408;16.826;2023-03-16T05:06:00;11.50;;;7.00;;
26435;SDS011;15351;52.408;16.826;2023-03-16T05:08:28;12.10;;;7.70;;
26435;SDS011;15351;52.408;16.826;2023-03-16T05:10:55;13.00;;;6.70;;
26435;SDS011;15351;52.408;16.826;2023-03-16T05:13:24;14.30;;;6.50;;
26435;SDS011;15351;52.408;16.826;2023-03-16T05:15:59;11.90;;;5.90;;
26435;SDS011;15351;52.408;16.826;2023-03-16T05:18:44;12.80;;;6.20;;
26435;SDS011;15351;52.408;16.826;2023-03-16T05:21:48;10.90;;;5.60;;
26435;SDS011;15351;52.408;16.826;2023-03-16T05:24:34;10.60;;;5.30;;
26435;SDS011;15351;52.408;16.826;2023-03-16T05:27:03;11.10;;;5.60;;
26435;SDS011;15351;52.408;16.826;2023-03-16T05:29:32;11.60;;;5.20;;
26435;SDS011;15351;52.408;16.826;2023-03-16T05:32:02;13.40;;;5.90;;
26435;SDS011;15351;52.408;16.826;2023-03-16T05:34:34;10.70;;;5.60;;
26435;SDS011;15351;52.408;16.826;2023-03-16T05:37:03;10.40;;;5.30;;
26435;SDS011;15351;52.408;16.826;2023-03-16T05:39:32;11.00;;;5.80;;
26435;SDS011;15351;52.408;16.826;2023-03-16T05:42:00;14.90;;;6.20;;
26435;SDS011;15351;52.408;16.826;2023-03-16T05:44:39;13.40;;;7.60;;
26435;SDS011;15351;52.408;16.826;2023-03-16T05:47:37;18.80;;;10.70;;
26435;SDS011;15351;52.408;16.826;2023-03-16T05:50:26;17.90;;;10.50;;
26435;SDS011;15351;52.408;16.826;2023-03-16T05:53:01;18.20;;;10.10;;
26435;SDS011;15351;52.408;16.826;2023-03-16T05:55:29;15.20;;;8.30;;
26435;SDS011;15351;52.408;16.826;2023-03-16T05:58:26;13.20;;;7.70;;
26435;SDS011;15351;52.408;16.826;2023-03-16T06:00:57;11.80;;;7.10;;
26435;SDS011;15351;52.408;16.826;2023-03-16T06:03:31;14.20;;;6.40;;
26435;SDS011;15351;52.408;16.826;2023-03-16T06:05:59;13.20;;;6.70;;
26435;SDS011;15351;52.408;16.826;2023-03-16T06:08:34;13.30;;;6.90;;
26435;SDS011;15351;52.408;16.826;2023-03-16T06:11:25;15.10;;;7.70;;
26435;SDS011;15351;52.408;16.826;2023-03-16T06:14:14;15.60;;;8.50;;
26435;SDS011;15351;52.408;16.826;2023-03-16T06:16:42;14.90;;;7.70;;
26435;SDS011;15351;52.408;16.826;2023-03-16T06:19:13;14.70;;;7.50;;
26435;SDS011;15351;52.408;16.826;2023-03-16T06:21:43;16.50;;;8.10;;
26435;SDS011;15351;52.408;16.826;2023-03-16T06:24:21;15.00;;;8.10;;
26435;SDS011;15351;52.408;16.826;2023-03-16T06:27:04;15.70;;;8.30;;
26435;SDS011;15351;52.408;16.826;2023-03-16T06:29:37;15.20;;;7.20;;
26435;SDS011;15351;52.408;16.826;2023-03-16T06:32:04;15.60;;;7.20;;
26435;SDS011;15351;52.408;16.826;2023-03-16T06:34:31;13.10;;;7.00;;
26435;SDS011;15351;52.408;16.826;2023-03-16T06:37:02;15.50;;;7.50;;
26435;SDS011;15351;52.408;16.826;2023-03-16T06:39:31;10.60;;;6.30;;
26435;SDS011;15351;52.408;16.826;2023-03-16T06:41:58;11.80;;;6.10;;
26435;SDS011;15351;52.408;16.826;2023-03-16T06:44:30;11.20;;;5.60;;
26435;SDS011;15351;52.408;16.826;2023-03-16T06:47:07;10.80;;;5.50;;
26435;SDS011;15351;52.408;16.826;2023-03-16T06:49:40;12.00;;;5.60;;
26435;SDS011;15351;52.408;16.826;2023-03-16T06:52:14;14.50;;;5.50;;
26435;SDS011;15351;52.408;16.826;2023-03-16T06:54:41;11.40;;;5.20;;
26435;SDS011;15351;52.408;16.826;2023-03-16T06:57:13;10.20;;;4.90;;
26435;SDS011;15351;52.408;16.826;2023-03-16T06:59:44;10.10;;;5.10;;
26435;SDS011;15351;52.408;16.826;2023-03-16T07:02:13;11.70;;;5.60;;
26435;SDS011;15351;52.408;16.826;2023-03-16T07:04:47;11.70;;;6.10;;
26435;SDS011;15351;52.408;16.826;2023-03-16T07:07:40;13.10;;;5.90;;
26435;SDS011;15351;52.408;16.826;2023-03-16T07:10:18;11.60;;;5.50;;
26435;SDS011;15351;52.408;16.826;2023-03-16T07:12:58;12.40;;;6.40;;
26435;SDS011;15351;52.408;16.826;2023-03-16T07:15:26;13.30;;;7.00;;
26435;SDS011;15351;52.408;16.826;2023-03-16T07:17:54;13.20;;;5.80;;
26435;SDS011;15351;52.408;16.826;2023-03-16T07:20:25;11.60;;;5.40;;
26435;SDS011;15351;52.408;16.826;2023-03-16T07:22:54;14.90;;;5.70;;
26435;SDS011;15351;52.408;16.826;2023-03-16T07:25:22;10.70;;;4.80;;
26435;SDS011;15351;52.408;16.826;2023-03-16T07:27:51;10.10;;;5.80;;
26435;SDS011;15351;52.408;16.826;2023-03-16T07:30:23;16.50;;;6.30;;
26435;SDS011;15351;52.408;16.826;2023-03-16T07:32:50;12.20;;;5.30;;
26435;SDS011;15351;52.408;16.826;2023-03-16T07:35:21;11.70;;;5.50;;
26435;SDS011;15351;52.408;16.826;2023-03-16T07:37:50;12.70;;;5.40;;
26435;SDS011;15351;52.408;16.826;2023-03-16T07:40:25;9.80;;;4.90;;
26435;SDS011;15351;52.408;16.826;2023-03-16T07:43:04;10.90;;;5.40;;
26435;SDS011;15351;52.408;16.826;2023-03-16T07:45:35;12.50;;;5.30;;
26435;SDS011;15351;52.408;16.826;2023-03-16T07:48:04;9.90;;;4.30;;
26435;SDS011;15351;52.408;16.826;2023-03-16T07:50:48;11.10;;;4.80;;
26435;SDS011;15351;52.408;16.826;2023-03-16T07:53:15;13.10;;;5.50;;
26435;SDS011;15351;52.408;16.826;2023-03-16T07:55:51;12.50;;;5.70;;
26435;SDS011;15351;52.408;16.826;2023-03-16T07:58:19;11.30;;;4.90;;
26435;SDS011;15351;52.408;16.826;2023-03-16T08:00:47;11.10;;;5.80;;
26435;SDS011;15351;52.408;16.826;2023-03-16T08:03:31;12.00;;;4.70;;
26435;SDS011;15351;52.408;16.826;2023-03-16T08:06:02;11.80;;;4.90;;
26435;SDS011;15351;52.408;16.826;2023-03-16T08:08:31;10.50;;;5.00;;
26435;SDS011;15351;52.408;16.826;2023-03-16T08:10:59;11.20;;;4.90;;
26435;SDS011;15351;52.408;16.826;2023-03-16T08:14:27;9.30;;;4.50;;
26435;SDS011;15351;52.408;16.826;2023-03-16T08:17:18;10.20;;;4.10;;
26435;SDS011;15351;52.408;16.826;2023-03-16T08:20:21;10.90;;;3.70;;
26435;SDS011;15351;52.408;16.826;2023-03-16T08:22:50;9.20;;;3.60;;
26435;SDS011;15351;52.408;16.826;2023-03-16T08:25:23;10.30;;;3.90;;
26435;SDS011;15351;52.408;16.826;2023-03-16T08:28:02;11.20;;;4.10;;
26435;SDS011;15351;52.408;16.826;2023-03-16T08:30:32;12.10;;;3.80;;
26435;SDS011;15351;52.408;16.826;2023-03-16T08:33:33;11.30;;;4.00;;
26435;SDS011;15351;52.408;16.826;2023-03-16T08:36:06;7.90;;;3.50;;
26435;SDS011;15351;52.408;16.826;2023-03-16T08:38:59;9.30;;;3.20;;
26435;SDS011;15351;52.408;16.826;2023-03-16T08:42:06;11.70;;;3.50;;
26435;SDS011;15351;52.408;16.826;2023-03-16T08:44:55;8.20;;;3.50;;
26435;SDS011;15351;52.408;16.826;2023-03-16T08:47:23;10.50;;;3.80;;
26435;SDS011;15351;52.408;16.826;2023-03-16T08:49:55;9.80;;;3.60;;
26435;SDS011;15351;52.408;16.826;2023-03-16T08:52:24;10.90;;;3.90;;
26435;SDS011;15351;52.408;16.826;2023-03-16T08:54:51;11.30;;;3.80;;
26435;SDS011;15351;52.408;16.826;2023-03-16T08:57:18;12.70;;;4.30;;
26435;SDS011;15351;52.408;16.826;2023-03-16T08:59:45;11.40;;;4.30;;
26435;SDS011;15351;52.408;16.826;2023-03-16T09:02:13;12.00;;;4.20;;
26435;SDS011;15351;52.408;16.826;2023-03-16T09:04:40;11.70;;;4.70;;
26435;SDS011;15351;52.408;16.826;2023-03-16T09:07:08;10.50;;;4.50;;
26435;SDS011;15351;52.408;16.826;2023-03-16T09:09:37;13.90;;;4.90;;
26435;SDS011;15351;52.408;16.826;2023-03-16T09:12:04;11.90;;;4.60;;
26435;SDS011;15351;52.408;16.826;2023-03-16T09:14:33;11.90;;;5.00;;
26435;SDS011;15351;52.408;16.826;2023-03-16T09:17:09;11.90;;;4.30;;
26435;SDS011;15351;52.408;16.826;2023-03-16T09:19:43;13.10;;;4.20;;
26435;SDS011;15351;52.408;16.826;2023-03-16T09:22:14;10.30;;;3.90;;
26435;SDS011;15351;52.408;16.826;2023-03-16T09:24:45;11.40;;;4.20;;
26435;SDS011;15351;52.408;16.826;2023-03-16T09:27:25;9.10;;;3.80;;
26435;SDS011;15351;52.408;16.826;2023-03-16T09:29:54;10.30;;;4.20;;
26435;SDS011;15351;52.408;16.826;2023-03-16T09:32:26;12.40;;;4.30;;
26435;SDS011;15351;52.408;16.826;2023-03-16T09:34:55;16.40;;;4.00;;
26435;SDS011;15351;52.408;16.826;2023-03-16T09:37:30;9.10;;;3.70;;
26435;SDS011;15351;52.408;16.826;2023-03-16T09:40:03;10.30;;;4.00;;
26435;SDS011;15351;52.408;16.826;2023-03-16T09:42:36;10.90;;;4.10;;
26435;SDS011;15351;52.408;16.826;2023-03-16T09:48:07;10.70;;;4.20;;
26435;SDS011;15351;52.408;16.826;2023-03-16T09:50:38;8.80;;;4.20;;
26435;SDS011;15351;52.408;16.826;2023-03-16T09:53:21;11.70;;;4.40;;
26435;SDS011;15351;52.408;16.826;2023-03-16T09:56:07;10.80;;;3.90;;
26435;SDS011;15351;52.408;16.826;2023-03-16T09:58:41;10.00;;;4.00;;
26435;SDS011;15351;52.408;16.826;2023-03-16T10:04:20;8.00;;;3.90;;
26435;SDS011;15351;52.408;16.826;2023-03-16T10:07:16;11.20;;;4.10;;
26435;SDS011;15351;52.408;16.826;2023-03-16T10:19:02;10.10;;;4.00;;
26435;SDS011;15351;52.408;16.826;2023-03-16T10:21:55;10.70;;;3.80;;
26435;SDS011;15351;52.408;16.826;2023-03-16T10:27:38;8.20;;;3.50;;
26435;SDS011;15351;52.408;16.826;2023-03-16T10:30:32;10.40;;;3.50;;
26435;SDS011;15351;52.408;16.826;2023-03-16T10:33:16;5.90;;;2.90;;
26435;SDS011;15351;52.408;16.826;2023-03-16T10:39:12;7.50;;;2.70;;
26435;SDS011;15351;52.408;16.826;2023-03-16T10:44:55;9.50;;;3.30;;
26435;SDS011;15351;52.408;16.826;2023-03-16T10:47:31;9.30;;;2.90;;
26435;SDS011;15351;52.408;16.826;2023-03-16T10:50:23;9.80;;;3.20;;
26435;SDS011;15351;52.408;16.826;2023-03-16T10:55:59;6.20;;;2.50;;
26435;SDS011;15351;52.408;16.826;2023-03-16T10:58:47;7.80;;;3.10;;
26435;SDS011;15351;52.408;16.826;2023-03-16T11:01:43;8.20;;;3.10;;
26435;SDS011;15351;52.408;16.826;2023-03-16T11:04:32;7.90;;;3.10;;
26435;SDS011;15351;52.408;16.826;2023-03-16T11:07:19;7.50;;;2.90;;
26435;SDS011;15351;52.408;16.826;2023-03-16T11:09:53;6.40;;;2.60;;
26435;SDS011;15351;52.408;16.826;2023-03-16T11:12:42;7.60;;;3.00;;
26435;SDS011;15351;52.408;16.826;2023-03-16T11:15:35;6.60;;;2.80;;
26435;SDS011;15351;52.408;16.826;2023-03-16T11:18:07;5.90;;;2.70;;
26435;SDS011;15351;52.408;16.826;2023-03-16T11:20:56;5.70;;;2.60;;
26435;SDS011;15351;52.408;16.826;2023-03-16T11:23:31;6.70;;;2.80;;
26435;SDS011;15351;52.408;16.826;2023-03-16T11:26:02;6.20;;;2.50;;
26435;SDS011;15351;52.408;16.826;2023-03-16T11:28:37;7.40;;;2.50;;
26435;SDS011;15351;52.408;16.826;2023-03-16T11:34:16;6.00;;;3.10;;
26435;SDS011;15351;52.408;16.826;2023-03-16T11:40:39;7.40;;;2.50;;
26435;SDS011;15351;52.408;16.826;2023-03-16T11:47:07;6.50;;;2.50;;
26435;SDS011;15351;52.408;16.826;2023-03-16T11:53:11;5.80;;;2.70;;
26435;SDS011;15351;52.408;16.826;2023-03-16T11:56:47;5.30;;;2.30;;
26435;SDS011;15351;52.408;16.826;2023-03-16T12:00:01;5.70;;;2.50;;
26435;SDS011;15351;52.408;16.826;2023-03-16T12:16:10;5.10;;;2.20;;
26435;SDS011;15351;52.408;16.826;2023-03-16T12:19:00;4.90;;;2.60;;
26435;SDS011;15351;52.408;16.826;2023-03-16T12:21:40;4.30;;;2.20;;
26435;SDS011;15351;52.408;16.826;2023-03-16T12:24:24;5.00;;;2.10;;
26435;SDS011;15351;52.408;16.826;2023-03-16T12:27:59;6.90;;;2.00;;
26435;SDS011;15351;52.408;16.826;2023-03-16T12:30:50;5.10;;;1.90;;
26435;SDS011;15351;52.408;16.826;2023-03-16T12:34:20;5.70;;;2.10;;
26435;SDS011;15351;52.408;16.826;2023-03-16T12:37:36;6.80;;;2.20;;
26435;SDS011;15351;52.408;16.826;2023-03-16T12:41:41;5.50;;;2.00;;
26435;SDS011;15351;52.408;16.826;2023-03-16T12:44:08;3.30;;;1.70;;
26435;SDS011;15351;52.408;16.826;2023-03-16T12:50:57;5.60;;;2.40;;
26435;SDS011;15351;52.408;16.826;2023-03-16T12:53:52;5.40;;;2.70;;
26435;SDS011;15351;52.408;16.826;2023-03-16T13:00:17;7.60;;;3.00;;
26435;SDS011;15351;52.408;16.826;2023-03-16T13:03:23;3.50;;;1.80;;
26435;SDS011;15351;52.408;16.826;2023-03-16T13:12:42;4.50;;;2.40;;
26435;SDS011;15351;52.408;16.826;2023-03-16T13:18:37;4.20;;;2.10;;
26435;SDS011;15351;52.408;16.826;2023-03-16T13:22:02;4.10;;;1.70;;
26435;SDS011;15351;52.408;16.826;2023-03-16T13:25:12;4.50;;;1.80;;
26435;SDS011;15351;52.408;16.826;2023-03-16T13:27:47;5.50;;;2.20;;
26435;SDS011;15351;52.408;16.826;2023-03-16T13:30:24;4.20;;;1.80;;
26435;SDS011;15351;52.408;16.826;2023-03-16T13:33:05;4.00;;;1.80;;
26435;SDS011;15351;52.408;16.826;2023-03-16T13:35:56;5.30;;;2.60;;
26435;SDS011;15351;52.408;16.826;2023-03-16T13:38:54;7.10;;;3.20;;
26435;SDS011;15351;52.408;16.826;2023-03-16T13:42:17;4.30;;;2.30;;
26435;SDS011;15351;52.408;16.826;2023-03-16T13:45:10;7.70;;;2.90;;
26435;SDS011;15351;52.408;16.826;2023-03-16T13:48:11;4.50;;;2.30;;
26435;SDS011;15351;52.408;16.826;2023-03-16T13:50:40;4.60;;;2.00;;
26435;SDS011;15351;52.408;16.826;2023-03-16T13:53:55;4.40;;;2.20;;
26435;SDS011;15351;52.408;16.826;2023-03-16T13:56:43;5.00;;;2.10;;
26435;SDS011;15351;52.408;16.826;2023-03-16T13:59:10;4.30;;;2.50;;
26435;SDS011;15351;52.408;16.826;2023-03-16T14:02:15;6.50;;;2.40;;
26435;SDS011;15351;52.408;16.826;2023-03-16T14:04:48;6.00;;;2.00;;
26435;SDS011;15351;52.408;16.826;2023-03-16T14:07:17;9.90;;;5.30;;
26435;SDS011;15351;52.408;16.826;2023-03-16T14:09:48;7.70;;;3.40;;
26435;SDS011;15351;52.408;16.826;2023-03-16T14:12:35;7.30;;;2.50;;
26435;SDS011;15351;52.408;16.826;2023-03-16T14:15:05;7.30;;;2.90;;
26435;SDS011;15351;52.408;16.826;2023-03-16T14:17:38;12.10;;;5.10;;
26435;SDS011;15351;52.408;16.826;2023-03-16T14:20:30;12.20;;;5.10;;
26435;SDS011;15351;52.408;16.826;2023-03-16T14:23:33;6.60;;;3.50;;
26435;SDS011;15351;52.408;16.826;2023-03-16T14:26:45;9.60;;;4.40;;
26435;SDS011;15351;52.408;16.826;2023-03-16T14:29:28;7.10;;;3.40;;
26435;SDS011;15351;52.408;16.826;2023-03-16T14:31:57;5.70;;;2.90;;
26435;SDS011;15351;52.408;16.826;2023-03-16T14:34:51;3.80;;;2.50;;
26435;SDS011;15351;52.408;16.826;2023-03-16T14:44:03;6.40;;;2.40;;
26435;SDS011;15351;52.408;16.826;2023-03-16T14:46:56;6.40;;;2.40;;
26435;SDS011;15351;52.408;16.826;2023-03-16T14:49:45;5.10;;;2.30;;
26435;SDS011;15351;52.408;16.826;2023-03-16T14:52:33;4.60;;;2.00;;
26435;SDS011;15351;52.408;16.826;2023-03-16T14:55:14;5.50;;;2.10;;
26435;SDS011;15351;52.408;16.826;2023-03-16T14:58:02;5.00;;;2.20;;
26435;SDS011;15351;52.408;16.826;2023-03-16T15:00:40;4.70;;;2.50;;
26435;SDS011;15351;52.408;16.826;2023-03-16T15:03:35;6.60;;;2.80;;
26435;SDS011;15351;52.408;16.826;2023-03-16T15:06:48;6.50;;;3.40;;
26435;SDS011;15351;52.408;16.826;2023-03-16T15:12:42;7.70;;;4.40;;
26435;SDS011;15351;52.408;16.826;2023-03-16T15:15:33;7.70;;;3.60;;
26435;SDS011;15351;52.408;16.826;2023-03-16T15:18:41;7.30;;;3.20;;
26435;SDS011;15351;52.408;16.826;2023-03-16T15:21:27;6.90;;;2.90;;
26435;SDS011;15351;52.408;16.826;2023-03-16T15:23:56;5.90;;;2.70;;
26435;SDS011;15351;52.408;16.826;2023-03-16T15:26:24;8.70;;;3.10;;
26435;SDS011;15351;52.408;16.826;2023-03-16T15:28:58;7.20;;;2.50;;
26435;SDS011;15351;52.408;16.826;2023-03-16T15:31:24;7.20;;;2.10;;
26435;SDS011;15351;52.408;16.826;2023-03-16T15:33:56;6.20;;;2.20;;
26435;SDS011;15351;52.408;16.826;2023-03-16T15:36:28;5.90;;;2.40;;
26435;SDS011;15351;52.408;16.826;2023-03-16T15:38:56;4.80;;;2.10;;
26435;SDS011;15351;52.408;16.826;2023-03-16T15:41:29;6.00;;;2.10;;
26435;SDS011;15351;52.408;16.826;2023-03-16T15:43:56;6.80;;;2.20;;
26435;SDS011;15351;52.408;16.826;2023-03-16T15:46:28;4.40;;;2.30;;
26435;SDS011;15351;52.408;16.826;2023-03-16T15:48:55;5.50;;;2.20;;
26435;SDS011;15351;52.408;16.826;2023-03-16T15:51:30;3.90;;;2.10;;
26435;SDS011;15351;52.408;16.826;2023-03-16T15:57:10;5.80;;;2.20;;
26435;SDS011;15351;52.408;16.826;2023-03-16T15:59:57;4.70;;;2.60;;
26435;SDS011;15351;52.408;16.826;2023-03-16T16:03:09;6.00;;;2.90;;
26435;SDS011;15351;52.408;16.826;2023-03-16T16:05:44;7.70;;;3.90;;
26435;SDS011;15351;52.408;16.826;2023-03-16T16:09:01;8.50;;;4.30;;
26435;SDS011;15351;52.408;16.826;2023-03-16T16:11:28;10.60;;;5.20;;
26435;SDS011;15351;52.408;16.826;2023-03-16T16:13:56;12.50;;;7.50;;
26435;SDS011;15351;52.408;16.826;2023-03-16T16:16:25;11.60;;;7.80;;
26435;SDS011;15351;52.408;16.826;2023-03-16T16:19:18;17.60;;;10.50;;
26435;SDS011;15351;52.408;16.826;2023-03-16T16:22:28;21.10;;;11.00;;
26435;SDS011;15351;52.408;16.826;2023-03-16T16:24:55;18.40;;;10.40;;
26435;SDS011;15351;52.408;16.826;2023-03-16T16:27:30;13.70;;;7.90;;
26435;SDS011;15351;52.408;16.826;2023-03-16T16:30:22;19.90;;;9.60;;
26435;SDS011;15351;52.408;16.826;2023-03-16T16:39:55;26.70;;;13.80;;
26435;SDS011;15351;52.408;16.826;2023-03-16T16:43:08;31.20;;;16.60;;
26435;SDS011;15351;52.408;16.826;2023-03-16T16:46:00;36.70;;;17.50;;
26435;SDS011;15351;52.408;16.826;2023-03-16T16:48:59;31.00;;;15.10;;
26435;SDS011;15351;52.408;16.826;2023-03-16T16:54:50;32.50;;;12.10;;
26435;SDS011;15351;52.408;16.826;2023-03-16T16:57:21;24.30;;;10.30;;
26435;SDS011;15351;52.408;16.826;2023-03-16T17:00:27;29.50;;;10.40;;
26435;SDS011;15351;52.408;16.826;2023-03-16T17:03:42;24.00;;;9.60;;
26435;SDS011;15351;52.408;16.826;2023-03-16T17:06:24;26.80;;;8.90;;
26435;SDS011;15351;52.408;16.826;2023-03-16T17:08:53;18.20;;;8.20;;
26435;SDS011;15351;52.408;16.826;2023-03-16T17:11:25;17.10;;;8.70;;
26435;SDS011;15351;52.408;16.826;2023-03-16T17:14:20;19.00;;;9.20;;
26435;SDS011;15351;52.408;16.826;2023-03-16T17:17:02;20.10;;;9.10;;
26435;SDS011;15351;52.408;16.826;2023-03-16T17:19:37;18.70;;;8.90;;
26435;SDS011;15351;52.408;16.826;2023-03-16T17:22:17;18.50;;;9.30;;